createdAt,value
2018-02-16T00:00:00.066Z,0
2018-02-16T00:01:02.408Z,0
2018-02-16T00:02:04.784Z,0
2018-02-16T00:03:07.062Z,0
2018-02-16T00:04:09.475Z,0
2018-02-16T00:05:11.918Z,0
2018-02-16T00:06:14.311Z,0
2018-02-16T00:07:16.575Z,0
2018-02-16T00:08:18.974Z,0
2018-02-16T00:09:21.829Z,0
2018-02-16T00:10:24.245Z,0
2018-02-16T00:11:26.621Z,0
2018-02-16T00:12:28.966Z,0
2018-02-16T00:13:31.982Z,0
2018-02-16T00:14:34.978Z,0
2018-02-16T00:15:37.299Z,0
2018-02-16T00:16:39.666Z,0
2018-02-16T00:17:42.075Z,0
2018-02-16T00:18:44.416Z,0
2018-02-16T00:19:47.394Z,0
2018-02-16T00:20:49.779Z,0
2018-02-16T00:21:52.217Z,0
2018-02-16T00:22:54.510Z,0
2018-02-16T00:23:57.475Z,0
2018-02-16T00:24:59.948Z,0
2018-02-16T00:26:02.347Z,0
2018-02-16T00:27:05.451Z,0
2018-02-16T00:28:07.840Z,0
2018-02-16T00:29:10.312Z,0
2018-02-16T00:30:13.479Z,0
2018-02-16T00:31:16.588Z,0
2018-02-16T00:32:18.971Z,0
2018-02-16T00:33:21.277Z,0
2018-02-16T00:34:23.724Z,0
2018-02-16T00:35:27.387Z,0
2018-02-16T00:36:29.976Z,0
2018-02-16T00:37:32.412Z,0
2018-02-16T00:38:34.776Z,0
2018-02-16T00:39:37.160Z,0
2018-02-16T00:40:39.565Z,0
2018-02-16T00:41:42.006Z,0
2018-02-16T00:42:44.391Z,0
2018-02-16T00:43:46.774Z,0
2018-02-16T00:44:49.153Z,0
2018-02-16T00:45:52.500Z,0
2018-02-16T00:46:54.797Z,0
2018-02-16T00:47:57.892Z,0
2018-02-16T00:49:00.208Z,0
2018-02-16T00:50:02.658Z,0
2018-02-16T00:51:05.160Z,0
2018-02-16T00:52:07.679Z,0
2018-02-16T00:53:10.140Z,0
2018-02-16T00:54:13.490Z,0
2018-02-16T00:55:15.944Z,0
2018-02-16T00:56:18.899Z,0
2018-02-16T00:57:21.558Z,0
2018-02-16T00:58:23.813Z,0
2018-02-16T00:59:26.172Z,0
2018-02-16T01:00:28.479Z,0
2018-02-16T01:02:41.238Z,0
2018-02-16T01:03:43.882Z,0
2018-02-16T01:04:46.561Z,0
2018-02-16T01:05:49.416Z,0
2018-02-16T01:06:52.212Z,0
2018-02-16T01:07:54.952Z,0
2018-02-16T01:08:56.789Z,0
2018-02-16T01:09:58.552Z,0
2018-02-16T01:11:00.435Z,0
2018-02-16T01:12:02.288Z,0
2018-02-16T01:13:04.552Z,0
2018-02-16T01:14:06.529Z,0
2018-02-16T01:15:08.461Z,0
2018-02-16T01:16:10.362Z,0
2018-02-16T01:17:12.748Z,0
2018-02-16T01:18:14.771Z,0
2018-02-16T01:19:16.767Z,0
2018-02-16T01:20:19.716Z,0
2018-02-16T01:21:22.620Z,0
2018-02-16T01:22:25.457Z,0
2018-02-16T01:23:27.836Z,0
2018-02-16T01:24:30.611Z,0
2018-02-16T01:25:32.677Z,0
2018-02-16T01:26:34.639Z,0
2018-02-16T01:27:37.632Z,0
2018-02-16T01:28:39.883Z,0
2018-02-16T01:29:42.530Z,0
2018-02-16T01:30:44.528Z,0
2018-02-16T01:31:46.930Z,0
2018-02-16T01:32:48.923Z,0
2018-02-16T01:33:51.315Z,0
2018-02-16T01:34:53.303Z,0
2018-02-16T01:35:55.676Z,0
2018-02-16T01:36:58.583Z,0
2018-02-16T01:38:00.804Z,0
2018-02-16T01:39:03.731Z,0
2018-02-16T01:40:05.752Z,0
2018-02-16T01:41:08.563Z,0
2018-02-16T01:42:10.825Z,0
2018-02-16T01:43:13.856Z,0
2018-02-16T01:44:15.819Z,0
2018-02-16T01:45:18.065Z,0
2018-02-16T01:46:20.131Z,0
2018-02-16T01:47:22.135Z,0
2018-02-16T01:48:24.141Z,0
2018-02-16T01:49:26.246Z,0
2018-02-16T01:50:28.268Z,0
2018-02-16T01:51:30.580Z,0
2018-02-16T01:52:32.905Z,0
2018-02-16T01:53:35.178Z,0
2018-02-16T01:54:37.184Z,0
2018-02-16T01:55:39.861Z,0
2018-02-16T01:56:42.077Z,0
2018-02-16T01:57:44.668Z,0
2018-02-16T01:58:47.219Z,0
2018-02-16T01:59:49.704Z,0
2018-02-16T02:00:52.216Z,0
2018-02-16T02:01:54.556Z,0
2018-02-16T02:02:56.951Z,0
2018-02-16T02:03:59.214Z,0
2018-02-16T02:05:01.287Z,0
2018-02-16T02:06:03.496Z,0
2018-02-16T02:07:05.753Z,0
2018-02-16T02:08:08.014Z,0
2018-02-16T02:09:10.243Z,0
2018-02-16T02:10:12.488Z,0
2018-02-16T02:11:14.634Z,0
2018-02-16T02:12:16.652Z,0
2018-02-16T02:13:18.634Z,0
2018-02-16T02:14:20.791Z,0
2018-02-16T02:15:22.736Z,0
2018-02-16T02:16:24.683Z,0
2018-02-16T02:17:26.482Z,0
2018-02-16T02:18:28.267Z,0
2018-02-16T02:19:30.244Z,0
2018-02-16T02:20:32.030Z,0
2018-02-16T02:21:34.024Z,0
2018-02-16T02:22:36.304Z,0
2018-02-16T02:23:38.481Z,0
2018-02-16T02:24:40.834Z,0
2018-02-16T02:25:43.077Z,0
2018-02-16T02:26:45.238Z,0
2018-02-16T02:27:47.102Z,0
2018-02-16T02:28:48.970Z,0
2018-02-16T02:29:50.787Z,0
2018-02-16T02:30:53.043Z,0
2018-02-16T02:31:55.135Z,0
2018-02-16T02:32:57.257Z,0
2018-02-16T02:33:59.448Z,0
2018-02-16T02:35:01.701Z,0
2018-02-16T02:36:03.529Z,0
2018-02-16T02:37:05.661Z,0
2018-02-16T02:38:07.664Z,0
2018-02-16T02:39:09.461Z,0
2018-02-16T02:40:11.431Z,0
2018-02-16T02:41:13.675Z,0
2018-02-16T02:42:15.615Z,0
2018-02-16T02:43:17.842Z,0
2018-02-16T02:44:20.024Z,0
2018-02-16T02:45:22.262Z,0
2018-02-16T02:46:24.477Z,0
2018-02-16T02:47:26.549Z,0
2018-02-16T02:48:28.760Z,0
2018-02-16T02:49:30.645Z,0
2018-02-16T02:50:32.797Z,0
2018-02-16T02:51:34.946Z,0
2018-02-16T02:52:36.990Z,0
2018-02-16T02:53:38.738Z,0
2018-02-16T02:54:40.759Z,0
2018-02-16T02:55:42.578Z,0
2018-02-16T02:56:44.752Z,0
2018-02-16T02:57:46.488Z,0
2018-02-16T02:58:48.251Z,0
2018-02-16T02:59:50.349Z,0
2018-02-16T03:00:52.320Z,0
2018-02-16T03:01:54.529Z,0
2018-02-16T03:02:56.248Z,0
2018-02-16T03:03:58.180Z,0
2018-02-16T03:05:00.174Z,0
2018-02-16T03:06:02.327Z,0
2018-02-16T03:07:04.349Z,0
2018-02-16T03:08:06.266Z,0
2018-02-16T03:09:08.356Z,0
2018-02-16T03:10:10.503Z,0
2018-02-16T03:11:12.656Z,0
2018-02-16T03:12:14.523Z,0
2018-02-16T03:13:16.612Z,0
2018-02-16T03:14:18.590Z,0
2018-02-16T03:15:20.628Z,0
2018-02-16T03:16:22.359Z,0
2018-02-16T03:17:24.509Z,0
2018-02-16T03:18:26.318Z,0
2018-02-16T03:19:28.222Z,0
2018-02-16T03:20:30.032Z,0
2018-02-16T03:21:31.797Z,0
2018-02-16T03:22:33.816Z,0
2018-02-16T03:23:35.976Z,0
2018-02-16T03:24:39.124Z,0
2018-02-16T03:25:41.075Z,0
2018-02-16T03:26:43.044Z,0
2018-02-16T03:27:44.745Z,0
2018-02-16T03:28:46.933Z,0
2018-02-16T03:29:49.644Z,0
2018-02-16T03:30:51.728Z,0
2018-02-16T03:31:55.907Z,0
2018-02-16T03:32:57.950Z,0
2018-02-16T03:34:00.288Z,0
2018-02-16T03:35:02.498Z,0
2018-02-16T03:36:04.436Z,0
2018-02-16T03:37:06.475Z,0
2018-02-16T03:38:08.646Z,0
2018-02-16T03:39:10.764Z,0
2018-02-16T03:40:12.874Z,0
2018-02-16T03:41:14.857Z,0
2018-02-16T03:42:16.944Z,0
2018-02-16T03:43:19.018Z,0
2018-02-16T03:44:21.096Z,0
2018-02-16T03:45:24.818Z,0
2018-02-16T03:46:27.655Z,0
2018-02-16T03:47:30.105Z,0
2018-02-16T03:48:33.692Z,0
2018-02-16T03:49:35.904Z,0
2018-02-16T03:50:38.546Z,0
2018-02-16T03:51:40.697Z,0
2018-02-16T03:52:42.897Z,0
2018-02-16T03:53:45.045Z,0
2018-02-16T03:54:47.218Z,0
2018-02-16T03:55:48.949Z,0
2018-02-16T03:56:50.853Z,0
2018-02-16T03:57:53.012Z,0
2018-02-16T03:58:55.269Z,0
2018-02-16T03:59:57.426Z,0
2018-02-16T04:00:59.378Z,0
2018-02-16T04:02:01.358Z,0
2018-02-16T04:03:03.359Z,0
2018-02-16T04:04:05.100Z,0
2018-02-16T04:05:06.894Z,0
2018-02-16T04:06:08.936Z,0
2018-02-16T04:07:12.278Z,0
2018-02-16T04:08:14.417Z,0
2018-02-16T04:09:16.436Z,0
2018-02-16T04:10:18.546Z,0
2018-02-16T04:11:42.794Z,0
2018-02-16T04:12:44.930Z,0
2018-02-16T04:13:47.089Z,0
2018-02-16T04:14:49.246Z,0
2018-02-16T04:15:51.426Z,0
2018-02-16T04:16:53.608Z,0
2018-02-16T04:17:55.778Z,0
2018-02-16T04:18:57.886Z,0
2018-02-16T04:19:59.984Z,0
2018-02-16T04:21:02.217Z,0
2018-02-16T04:22:04.256Z,0
2018-02-16T04:23:06.513Z,0
2018-02-16T04:24:08.534Z,0
2018-02-16T04:25:10.739Z,0
2018-02-16T04:26:12.926Z,0
2018-02-16T04:27:15.072Z,0
2018-02-16T04:28:18.612Z,0
2018-02-16T04:29:20.717Z,0
2018-02-16T04:30:22.789Z,0
2018-02-16T04:31:24.587Z,0
2018-02-16T04:32:26.603Z,0
2018-02-16T04:33:28.746Z,0
2018-02-16T04:34:30.701Z,0
2018-02-16T04:35:32.749Z,0
2018-02-16T04:36:34.509Z,0
2018-02-16T04:37:36.291Z,0
2018-02-16T04:38:38.449Z,0
2018-02-16T04:39:40.199Z,0
2018-02-16T04:40:42.752Z,0
2018-02-16T04:41:44.768Z,0
2018-02-16T04:42:46.762Z,0
2018-02-16T04:43:48.748Z,0
2018-02-16T04:44:50.846Z,0
2018-02-16T04:45:52.761Z,0
2018-02-16T04:46:54.782Z,0
2018-02-16T04:47:56.674Z,0
2018-02-16T04:48:58.568Z,0
2018-02-16T04:50:00.669Z,0
2018-02-16T04:51:02.839Z,0
2018-02-16T04:52:04.916Z,0
2018-02-16T04:53:07.023Z,0
2018-02-16T04:54:09.022Z,0
2018-02-16T04:55:11.188Z,0
2018-02-16T04:56:13.444Z,0
2018-02-16T04:57:18.351Z,0
2018-02-16T04:58:20.627Z,0
2018-02-16T04:59:22.676Z,0
2018-02-16T05:00:24.759Z,0
2018-02-16T05:01:26.947Z,0
2018-02-16T05:02:29.075Z,0
2018-02-16T05:03:31.047Z,0
2018-02-16T05:04:33.046Z,0
2018-02-16T05:05:35.239Z,0
2018-02-16T05:06:37.488Z,0
2018-02-16T05:07:39.687Z,0
2018-02-16T05:08:41.734Z,0
2018-02-16T05:09:44.522Z,0
2018-02-16T05:10:46.640Z,0
2018-02-16T05:11:49.002Z,0
2018-02-16T05:12:51.143Z,0
2018-02-16T05:13:53.301Z,0
2018-02-16T05:14:55.521Z,0
2018-02-16T05:15:57.620Z,0
2018-02-16T05:16:59.754Z,0
2018-02-16T05:18:01.891Z,0
2018-02-16T05:19:04.111Z,0
2018-02-16T05:20:06.330Z,0
2018-02-16T05:21:08.452Z,0
2018-02-16T05:22:10.568Z,0
2018-02-16T05:23:12.971Z,0
2018-02-16T05:24:15.089Z,0
2018-02-16T05:25:17.096Z,0
2018-02-16T05:26:19.150Z,0
2018-02-16T05:27:21.641Z,0
2018-02-16T05:28:23.917Z,0
2018-02-16T05:29:25.656Z,0
2018-02-16T05:30:27.437Z,0
2018-02-16T05:31:29.328Z,0
2018-02-16T05:32:31.109Z,0
2018-02-16T05:33:33.026Z,0
2018-02-16T05:34:34.801Z,0
2018-02-16T05:35:36.585Z,0
2018-02-16T05:36:38.375Z,0
2018-02-16T05:37:40.122Z,0
2018-02-16T05:38:42.234Z,0
2018-02-16T05:39:44.426Z,0
2018-02-16T05:40:46.446Z,0
2018-02-16T05:41:48.282Z,0
2018-02-16T05:42:50.189Z,0
2018-02-16T05:43:52.343Z,0
2018-02-16T05:44:54.061Z,0
2018-02-16T05:45:56.415Z,0
2018-02-16T05:46:58.441Z,0
2018-02-16T05:48:00.441Z,0
2018-02-16T05:49:02.540Z,0
2018-02-16T05:50:04.815Z,0
2018-02-16T05:51:06.596Z,0
2018-02-16T05:52:08.430Z,0
2018-02-16T05:53:10.242Z,0
2018-02-16T05:54:11.952Z,0
2018-02-16T05:55:14.226Z,0
2018-02-16T05:56:16.111Z,0
2018-02-16T05:57:17.857Z,0
2018-02-16T05:58:19.584Z,0
2018-02-16T05:59:22.579Z,0
2018-02-16T06:00:24.740Z,0
2018-02-16T06:01:26.773Z,0
2018-02-16T06:02:28.637Z,0
2018-02-16T06:03:30.852Z,0
2018-02-16T06:04:32.984Z,0
2018-02-16T06:05:35.089Z,0
2018-02-16T06:06:36.930Z,0
2018-02-16T06:07:38.687Z,0
2018-02-16T06:08:40.426Z,0
2018-02-16T06:09:42.199Z,0
2018-02-16T06:10:44.339Z,0
2018-02-16T06:11:46.781Z,0
2018-02-16T06:12:48.858Z,0
2018-02-16T06:13:51.384Z,4
2018-02-16T06:15:01.634Z,4
2018-02-16T06:16:04.256Z,0
2018-02-16T06:17:06.023Z,4
2018-02-16T06:18:07.812Z,0
2018-02-16T06:19:09.816Z,4
2018-02-16T06:20:11.556Z,4
2018-02-16T06:21:13.636Z,4
2018-02-16T06:22:15.708Z,8
2018-02-16T06:23:17.682Z,8
2018-02-16T06:24:19.886Z,8
2018-02-16T06:25:22.103Z,16
2018-02-16T06:26:24.218Z,16
2018-02-16T06:27:26.334Z,16
2018-02-16T06:28:28.136Z,20
2018-02-16T06:29:29.917Z,24
2018-02-16T06:30:31.619Z,32
2018-02-16T06:31:33.444Z,32
2018-02-16T06:32:35.191Z,36
2018-02-16T06:33:37.087Z,44
2018-02-16T06:34:39.193Z,48
2018-02-16T06:35:41.321Z,56
2018-02-16T06:36:43.581Z,64
2018-02-16T06:37:45.722Z,72
2018-02-16T06:38:48.252Z,72
2018-02-16T06:39:50.039Z,72
2018-02-16T06:40:51.845Z,68
2018-02-16T06:41:53.666Z,64
2018-02-16T06:42:55.976Z,64
2018-02-16T06:43:58.142Z,68
2018-02-16T06:45:00.037Z,72
2018-02-16T06:46:01.835Z,76
2018-02-16T06:47:03.631Z,84
2018-02-16T06:48:05.491Z,92
2018-02-16T06:49:07.561Z,100
2018-02-16T06:50:09.530Z,104
2018-02-16T06:51:11.341Z,112
2018-02-16T06:52:13.354Z,116
2018-02-16T06:53:15.219Z,120
2018-02-16T06:54:17.204Z,128
2018-02-16T06:55:18.973Z,140
2018-02-16T06:56:20.737Z,144
2018-02-16T06:57:22.706Z,156
2018-02-16T06:58:24.411Z,172
2018-02-16T06:59:26.135Z,192
2018-02-16T07:00:27.870Z,212
2018-02-16T07:01:30.024Z,228
2018-02-16T07:02:32.145Z,256
2018-02-16T07:03:33.900Z,268
2018-02-16T07:04:35.897Z,276
2018-02-16T07:05:37.640Z,288
2018-02-16T07:06:39.375Z,312
2018-02-16T07:07:41.649Z,332
2018-02-16T07:08:43.358Z,352
2018-02-16T07:09:45.656Z,380
2018-02-16T07:10:47.382Z,404
2018-02-16T07:11:49.089Z,420
2018-02-16T07:12:51.402Z,436
2018-02-16T07:13:53.227Z,472
2018-02-16T07:14:55.174Z,480
2018-02-16T07:15:56.880Z,480
2018-02-16T07:16:59.184Z,484
2018-02-16T07:18:00.951Z,500
2018-02-16T07:19:02.818Z,548
2018-02-16T07:20:05.060Z,628
2018-02-16T07:21:06.812Z,680
2018-02-16T07:22:09.008Z,708
2018-02-16T07:23:10.756Z,712
2018-02-16T07:24:12.565Z,692
2018-02-16T07:25:14.619Z,676
2018-02-16T07:26:16.861Z,688
2018-02-16T07:27:18.716Z,708
2018-02-16T07:28:20.409Z,752
2018-02-16T07:29:22.807Z,816
2018-02-16T07:30:24.517Z,888
2018-02-16T07:31:26.252Z,972
2018-02-16T07:32:27.954Z,1052
2018-02-16T07:33:29.710Z,1140
2018-02-16T07:34:31.483Z,1244
2018-02-16T07:35:33.727Z,1452
2018-02-16T07:36:35.476Z,1904
2018-02-16T07:37:37.937Z,2176
2018-02-16T07:38:39.656Z,1788
2018-02-16T07:39:41.928Z,1380
2018-02-16T07:40:43.624Z,1256
2018-02-16T07:41:45.462Z,1256
2018-02-16T07:42:47.284Z,1300
2018-02-16T07:43:49.734Z,1408
2018-02-16T07:44:52.473Z,1520
2018-02-16T07:45:54.783Z,1700
2018-02-16T07:46:56.588Z,1896
2018-02-16T07:47:58.542Z,2052
2018-02-16T07:49:00.432Z,2096
2018-02-16T07:50:02.099Z,1960
2018-02-16T07:51:03.838Z,1840
2018-02-16T07:52:05.823Z,1784
2018-02-16T07:53:07.841Z,1664
2018-02-16T07:54:09.735Z,1564
2018-02-16T07:55:12.185Z,1520
2018-02-16T07:56:14.483Z,1592
2018-02-16T07:57:16.212Z,1740
2018-02-16T07:58:17.902Z,1856
2018-02-16T07:59:20.155Z,1788
2018-02-16T08:00:21.875Z,1484
2018-02-16T08:01:23.679Z,1284
2018-02-16T08:02:25.491Z,1248
2018-02-16T08:03:27.272Z,1244
2018-02-16T08:04:29.088Z,1268
2018-02-16T08:05:31.129Z,1296
2018-02-16T08:06:32.912Z,1356
2018-02-16T08:07:34.626Z,1448
2018-02-16T08:08:36.838Z,1528
2018-02-16T08:09:39.238Z,1608
2018-02-16T08:10:40.951Z,1748
2018-02-16T08:11:42.688Z,1832
2018-02-16T08:12:44.787Z,1844
2018-02-16T08:13:46.641Z,1856
2018-02-16T08:14:48.498Z,1856
2018-02-16T08:15:50.791Z,1736
2018-02-16T08:16:52.965Z,1612
2018-02-16T08:17:54.744Z,1576
2018-02-16T08:18:56.572Z,1520
2018-02-16T08:19:58.786Z,1496
2018-02-16T08:21:00.510Z,1504
2018-02-16T08:22:02.337Z,1488
2018-02-16T08:23:04.081Z,1544
2018-02-16T08:24:05.813Z,1636
2018-02-16T08:25:07.539Z,1712
2018-02-16T08:26:09.270Z,1844
2018-02-16T08:27:11.080Z,2032
2018-02-16T08:28:12.870Z,2120
2018-02-16T08:29:14.633Z,2092
2018-02-16T08:30:16.339Z,2024
2018-02-16T08:31:18.157Z,2176
2018-02-16T08:32:19.865Z,2496
2018-02-16T08:33:22.357Z,2836
2018-02-16T08:34:24.065Z,2928
2018-02-16T08:35:25.791Z,2964
2018-02-16T08:36:27.492Z,2892
2018-02-16T08:37:29.195Z,3068
2018-02-16T08:38:31.042Z,3324
2018-02-16T08:39:32.786Z,3300
2018-02-16T08:40:34.499Z,3340
2018-02-16T08:41:36.204Z,3596
2018-02-16T08:42:37.897Z,3372
2018-02-16T08:43:39.684Z,2884
2018-02-16T08:44:41.433Z,3120
2018-02-16T08:45:43.192Z,3332
2018-02-16T08:46:44.990Z,3604
2018-02-16T08:47:46.757Z,3252
2018-02-16T08:48:48.452Z,3608
2018-02-16T08:49:50.175Z,4268
2018-02-16T08:50:51.928Z,5372
2018-02-16T08:51:53.722Z,6388
2018-02-16T08:52:55.478Z,7256
2018-02-16T08:53:57.210Z,7640
2018-02-16T08:54:58.968Z,21184
2018-02-16T08:56:00.658Z,4660
2018-02-16T08:57:02.648Z,4580
2018-02-16T08:58:04.376Z,4256
2018-02-16T08:59:06.070Z,4264
2018-02-16T09:00:07.803Z,4132
2018-02-16T09:01:09.523Z,4236
2018-02-16T09:02:11.320Z,4448
2018-02-16T09:03:13.042Z,4448
2018-02-16T09:04:14.838Z,4116
2018-02-16T09:05:16.588Z,3916
2018-02-16T09:06:18.367Z,3296
2018-02-16T09:07:20.093Z,2676
2018-02-16T09:08:21.790Z,2496
2018-02-16T09:09:23.538Z,2440
2018-02-16T09:10:25.225Z,2792
2018-02-16T09:11:26.964Z,3432
2018-02-16T09:12:28.760Z,4264
2018-02-16T09:13:31.020Z,5188
2018-02-16T09:14:33.068Z,12748
2018-02-16T09:15:34.825Z,6824
2018-02-16T09:16:36.911Z,31584
2018-02-16T09:17:39.171Z,12780
2018-02-16T09:18:40.914Z,8196
2018-02-16T09:19:42.685Z,32416
2018-02-16T09:20:44.438Z,8292
2018-02-16T09:21:46.496Z,26656
2018-02-16T09:22:48.663Z,29504
2018-02-16T09:23:50.436Z,7296
2018-02-16T09:24:52.171Z,8376
2018-02-16T09:25:53.953Z,26208
2018-02-16T09:26:55.645Z,8704
2018-02-16T09:27:57.383Z,6284
2018-02-16T09:28:59.089Z,12548
2018-02-16T09:30:00.849Z,11544
2018-02-16T09:31:02.587Z,8176
2018-02-16T09:32:04.393Z,9632
2018-02-16T09:33:06.096Z,12184
2018-02-16T09:34:07.824Z,8096
2018-02-16T09:35:09.584Z,26528
2018-02-16T09:36:11.301Z,9420
2018-02-16T09:37:13.110Z,30848
2018-02-16T09:38:14.834Z,11012
2018-02-16T09:39:16.670Z,13192
2018-02-16T09:40:18.431Z,9828
2018-02-16T09:41:20.125Z,9644
2018-02-16T09:42:21.798Z,9364
2018-02-16T09:43:23.626Z,8832
2018-02-16T09:44:25.380Z,11480
2018-02-16T09:45:27.156Z,24864
2018-02-16T09:46:28.886Z,22496
2018-02-16T09:47:30.644Z,24096
2018-02-16T09:48:32.391Z,27616
2018-02-16T09:49:34.127Z,21248
2018-02-16T09:50:35.862Z,19808
2018-02-16T09:51:37.705Z,24000
2018-02-16T09:52:39.459Z,28288
2018-02-16T09:53:41.590Z,28256
2018-02-16T09:54:43.662Z,30144
2018-02-16T09:55:46.017Z,20256
2018-02-16T09:56:47.736Z,13828
2018-02-16T09:57:49.583Z,11584
2018-02-16T09:58:51.329Z,15680
2018-02-16T09:59:53.028Z,20448
2018-02-16T10:00:54.745Z,18752
2018-02-16T10:01:57.027Z,20000
2018-02-16T10:02:58.752Z,16288
2018-02-16T10:04:00.588Z,20640
2018-02-16T10:05:02.580Z,25664
2018-02-16T10:06:04.350Z,27968
2018-02-16T10:07:06.162Z,38720
2018-02-16T10:08:08.034Z,30336
2018-02-16T10:09:09.989Z,22976
2018-02-16T10:10:12.105Z,5768
2018-02-16T10:11:13.855Z,9420
2018-02-16T10:12:15.619Z,8608
2018-02-16T10:13:17.365Z,6800
2018-02-16T10:14:19.179Z,8160
2018-02-16T10:15:20.948Z,6104
2018-02-16T10:16:23.307Z,6052
2018-02-16T10:17:25.583Z,4840
2018-02-16T10:18:28.077Z,4536
2018-02-16T10:19:30.337Z,21600
2018-02-16T10:20:32.110Z,18720
2018-02-16T10:21:33.893Z,17088
2018-02-16T10:22:35.639Z,5980
2018-02-16T10:23:37.373Z,6616
2018-02-16T10:24:39.550Z,43616
2018-02-16T10:25:41.866Z,29024
2018-02-16T10:26:43.736Z,26400
2018-02-16T10:27:45.516Z,26080
2018-02-16T10:28:47.250Z,5936
2018-02-16T10:29:49.016Z,23872
2018-02-16T10:30:51.298Z,41472
2018-02-16T10:31:53.429Z,27872
2018-02-16T10:32:55.766Z,16704
2018-02-16T10:33:57.888Z,18176
2018-02-16T10:34:59.743Z,13404
2018-02-16T10:36:01.768Z,26944
2018-02-16T10:37:03.787Z,21760
2018-02-16T10:38:06.148Z,16256
2018-02-16T10:39:08.272Z,20864
2018-02-16T10:40:10.574Z,17984
2018-02-16T10:41:12.887Z,27168
2018-02-16T10:42:14.978Z,33152
2018-02-16T10:43:17.374Z,29536
2018-02-16T10:44:19.710Z,21952
2018-02-16T10:45:21.512Z,13956
2018-02-16T10:46:23.240Z,28064
2018-02-16T10:47:24.965Z,39584
2018-02-16T10:48:26.730Z,42496
2018-02-16T10:49:28.474Z,43264
2018-02-16T10:50:30.232Z,41920
2018-02-16T10:51:31.960Z,40864
2018-02-16T10:52:33.721Z,26016
2018-02-16T10:53:35.463Z,21536
2018-02-16T10:54:37.253Z,12368
2018-02-16T10:55:39.485Z,10832
2018-02-16T10:56:41.471Z,8024
2018-02-16T10:57:43.726Z,24160
2018-02-16T10:58:45.468Z,17664
2018-02-16T10:59:47.710Z,17920
2018-02-16T11:00:49.473Z,9528
2018-02-16T11:01:51.195Z,34624
2018-02-16T11:02:52.931Z,38944
2018-02-16T11:03:54.680Z,44288
2018-02-16T11:04:56.534Z,7040
2018-02-16T11:05:58.699Z,20416
2018-02-16T11:07:00.476Z,27072
2018-02-16T11:08:02.599Z,24384
2018-02-16T11:09:04.307Z,28672
2018-02-16T11:10:06.010Z,46400
2018-02-16T11:11:07.811Z,10176
2018-02-16T11:12:09.568Z,54720
2018-02-16T11:13:11.271Z,7856
2018-02-16T11:14:13.036Z,6036
2018-02-16T11:15:14.735Z,30176
2018-02-16T11:16:16.531Z,21056
2018-02-16T11:17:18.272Z,24448
2018-02-16T11:18:20.071Z,12680
2018-02-16T11:19:21.791Z,36960
2018-02-16T11:20:23.548Z,9200
2018-02-16T11:21:25.318Z,8356
2018-02-16T11:22:27.162Z,37152
2018-02-16T11:23:29.060Z,25856
2018-02-16T11:24:30.803Z,17376
2018-02-16T11:25:32.840Z,13204
2018-02-16T11:26:34.917Z,15256
2018-02-16T11:27:37.158Z,38240
2018-02-16T11:28:39.334Z,26528
2018-02-16T11:29:41.628Z,50784
2018-02-16T11:30:43.909Z,52928
2018-02-16T11:31:45.694Z,47552
2018-02-16T11:32:47.463Z,8140
2018-02-16T11:33:49.266Z,8512
2018-02-16T11:34:51.036Z,47424
2018-02-16T11:35:52.830Z,9500
2018-02-16T11:36:54.627Z,55872
2018-02-16T11:37:56.414Z,45664
2018-02-16T11:38:58.189Z,42336
2018-02-16T11:40:00.260Z,43968
2018-02-16T11:41:02.017Z,40512
2018-02-16T11:42:03.732Z,37632
2018-02-16T11:43:05.452Z,41216
2018-02-16T11:44:07.282Z,46272
2018-02-16T11:45:09.140Z,33216
2018-02-16T11:46:10.856Z,42944
2018-02-16T11:47:12.944Z,27520
2018-02-16T11:48:15.773Z,9212
2018-02-16T11:49:19.381Z,12776
2018-02-16T11:50:21.875Z,51808
2018-02-16T11:51:24.156Z,53280
2018-02-16T11:52:26.602Z,7552
2018-02-16T11:53:29.082Z,4600
2018-02-16T11:54:31.264Z,3516
2018-02-16T11:55:34.443Z,4900
2018-02-16T11:56:37.687Z,6492
2018-02-16T11:57:41.212Z,57504
2018-02-16T11:58:44.163Z,42528
2018-02-16T11:59:47.188Z,6056
2018-02-16T12:00:49.371Z,5712
2018-02-16T12:01:51.372Z,55232
2018-02-16T12:02:53.171Z,56192
2018-02-16T12:03:54.909Z,6612
2018-02-16T12:04:56.690Z,5136
2018-02-16T12:05:58.429Z,28544
2018-02-16T12:07:00.211Z,24704
2018-02-16T12:08:01.951Z,20288
2018-02-16T12:09:03.727Z,12496
2018-02-16T12:10:05.412Z,3980
2018-02-16T12:11:07.134Z,4736
2018-02-16T12:12:08.879Z,43808
2018-02-16T12:13:10.663Z,54752
2018-02-16T12:14:12.452Z,45792
2018-02-16T12:15:14.184Z,5708
2018-02-16T12:16:15.991Z,5228
2018-02-16T12:17:17.743Z,6644
2018-02-16T12:18:19.462Z,5980
2018-02-16T12:19:21.231Z,6204
2018-02-16T12:20:23.053Z,23040
2018-02-16T12:21:24.783Z,10660
2018-02-16T12:22:26.492Z,43808
2018-02-16T12:23:28.379Z,52032
2018-02-16T12:24:30.088Z,56704
2018-02-16T12:25:31.813Z,55840
2018-02-16T12:26:33.572Z,54720
2018-02-16T12:27:35.337Z,7236
2018-02-16T12:28:37.163Z,4064
2018-02-16T12:29:39.015Z,3932
2018-02-16T12:30:40.726Z,3712
2018-02-16T12:31:42.415Z,3288
2018-02-16T12:32:44.130Z,3548
2018-02-16T12:33:45.888Z,20960
2018-02-16T12:34:47.647Z,53280
2018-02-16T12:35:49.394Z,6468
2018-02-16T12:36:51.083Z,4836
2018-02-16T12:37:52.801Z,3880
2018-02-16T12:38:54.515Z,7460
2018-02-16T12:39:56.345Z,4092
2018-02-16T12:40:58.132Z,6376
2018-02-16T12:41:59.974Z,5652
2018-02-16T12:43:01.681Z,4648
2018-02-16T12:44:03.457Z,15808
2018-02-16T12:45:05.197Z,4564
2018-02-16T12:46:06.956Z,3712
2018-02-16T12:47:08.728Z,3632
2018-02-16T12:48:10.457Z,3884
2018-02-16T12:49:12.206Z,5380
2018-02-16T12:50:13.870Z,40736
2018-02-16T12:51:15.603Z,4640
2018-02-16T12:52:17.529Z,4880
2018-02-16T12:53:19.384Z,4308
2018-02-16T12:54:21.072Z,4364
2018-02-16T12:55:22.871Z,4232
2018-02-16T12:56:24.597Z,4772
2018-02-16T12:57:26.319Z,5132
2018-02-16T12:58:28.029Z,7408
2018-02-16T12:59:29.801Z,48928
2018-02-16T13:00:31.539Z,7396
2018-02-16T13:01:33.596Z,6416
2018-02-16T13:02:35.340Z,12952
2018-02-16T13:03:37.246Z,50464
2018-02-16T13:04:39.035Z,49184
2018-02-16T13:05:40.798Z,27904
2018-02-16T13:06:42.772Z,54080
2018-02-16T13:07:44.516Z,46976
2018-02-16T13:08:46.840Z,17280
2018-02-16T13:09:48.682Z,42560
2018-02-16T13:10:50.403Z,42272
2018-02-16T13:11:52.201Z,46656
2018-02-16T13:12:54.014Z,47072
2018-02-16T13:13:55.783Z,46592
2018-02-16T13:14:57.552Z,43328
2018-02-16T13:15:59.203Z,48032
2018-02-16T13:17:00.843Z,48192
2018-02-16T13:18:02.490Z,47296
2018-02-16T13:19:04.180Z,45952
2018-02-16T13:20:05.911Z,46176
2018-02-16T13:21:07.623Z,45216
2018-02-16T13:22:09.389Z,44672
2018-02-16T13:23:11.030Z,45856
2018-02-16T13:24:12.668Z,47040
2018-02-16T13:25:14.365Z,46016
2018-02-16T13:26:16.157Z,43200
2018-02-16T13:27:17.931Z,43648
2018-02-16T13:28:19.683Z,44384
2018-02-16T13:29:21.387Z,43680
2018-02-16T13:30:23.139Z,44064
2018-02-16T13:31:24.823Z,45600
2018-02-16T13:32:26.465Z,44032
2018-02-16T13:33:28.233Z,41600
2018-02-16T13:34:29.883Z,40768
2018-02-16T13:35:31.681Z,39168
2018-02-16T13:36:33.325Z,40448
2018-02-16T13:37:34.973Z,44736
2018-02-16T13:38:36.642Z,44832
2018-02-16T13:39:38.285Z,42880
2018-02-16T13:40:39.991Z,40000
2018-02-16T13:41:41.653Z,40224
2018-02-16T13:42:43.299Z,41248
2018-02-16T13:43:44.997Z,39456
2018-02-16T13:44:46.660Z,38176
2018-02-16T13:45:48.310Z,7756
2018-02-16T13:46:50.010Z,32960
2018-02-16T13:47:51.655Z,32288
2018-02-16T13:48:53.315Z,32512
2018-02-16T13:49:54.967Z,30176
2018-02-16T13:50:57.366Z,29696
2018-02-16T13:51:59.744Z,32256
2018-02-16T13:53:02.827Z,30272
2018-02-16T13:54:04.965Z,30272
2018-02-16T13:55:06.700Z,30176
2018-02-16T13:56:08.718Z,29792
2018-02-16T13:57:10.372Z,29824
2018-02-16T13:58:13.643Z,28576
2018-02-16T13:59:15.471Z,28288
2018-02-16T14:00:17.169Z,28000
2018-02-16T14:01:20.012Z,27616
2018-02-16T14:02:21.774Z,27456
2018-02-16T14:03:24.115Z,21664
2018-02-16T14:04:26.248Z,30272
2018-02-16T14:05:29.634Z,32960
2018-02-16T14:06:31.384Z,33632
2018-02-16T14:07:33.134Z,31328
2018-02-16T14:08:34.793Z,26528
2018-02-16T14:09:36.465Z,23264
2018-02-16T14:10:40.538Z,21408
2018-02-16T14:11:43.114Z,19776
2018-02-16T14:12:44.770Z,19040
2018-02-16T14:13:46.524Z,17760
2018-02-16T14:14:48.200Z,16352
2018-02-16T14:15:50.047Z,15552
2018-02-16T14:16:53.454Z,15488
2018-02-16T14:17:55.323Z,15968
2018-02-16T14:18:57.072Z,15328
2018-02-16T14:19:58.779Z,14592
2018-02-16T14:21:04.774Z,14072